Time;durP1;ratioP1;P1;durP2;ratioP2;P2;SDS_P1;SDS_P2;PMS_P1;PMS_P2;Temp;Humidity;BMP_temperature;BMP_pressure;BME280_temperature;BME280_humidity;BME280_pressure;Samples;Min_cycle;Max_cycle;Signal;HPM_P1;HPM_P2
2023/06/01 00:00:33;;;;;;;6.10;1.98;;;14.70;99.90;;;13.17;100.00;97882.22;4987754;28;20046;-71
2023/06/01 00:03:00;;;;;;;8.23;1.80;;;14.60;99.90;;;13.12;100.00;97878.97;5005201;28;20088;-71
2023/06/01 00:05:27;;;;;;;5.20;1.75;;;14.50;99.90;;;13.14;100.00;97879.75;5006021;28;20061;-71
2023/06/01 00:07:54;;;;;;;5.25;1.60;;;14.40;99.90;;;13.25;100.00;97875.78;5010204;28;20129;-71
2023/06/01 00:10:21;;;;;;;7.38;1.85;;;14.40;99.90;;;13.20;100.00;97881.22;4992003;28;20137;-71
2023/06/01 00:12:48;;;;;;;3.95;1.60;;;14.40;99.90;;;13.07;100.00;97880.09;5008928;28;20085;-71
2023/06/01 00:15:15;;;;;;;3.80;1.42;;;14.30;99.90;;;12.96;100.00;97884.09;5012753;28;20093;-71
2023/06/01 00:17:42;;;;;;;4.05;1.58;;;14.30;99.90;;;13.05;100.00;97879.38;4991750;28;20050;-71
2023/06/01 00:20:10;;;;;;;4.90;1.48;;;14.20;99.90;;;13.10;100.00;97875.59;4996623;28;20417;-71
2023/06/01 00:22:38;;;;;;;5.32;1.98;;;14.30;99.90;;;13.02;100.00;97879.50;5011652;28;20049;-71
2023/06/01 00:25:09;;;;;;;5.03;1.60;;;14.20;99.90;;;12.91;100.00;97880.03;5012865;28;20076;-71
2023/06/01 00:27:36;;;;;;;3.88;1.52;;;14.20;99.90;;;12.96;100.00;97875.44;4991503;28;20262;-71
2023/06/01 00:30:04;;;;;;;4.05;1.50;;;14.10;99.90;;;12.77;100.00;97873.69;5003516;28;20069;-71
2023/06/01 00:32:31;;;;;;;5.75;1.85;;;14.10;99.90;;;12.76;100.00;97873.75;5004565;28;20153;-70
2023/06/01 00:34:58;;;;;;;6.25;1.98;;;14.00;99.90;;;12.73;100.00;97872.13;5008135;28;20522;-71
2023/06/01 00:37:25;;;;;;;8.82;1.80;;;14.00;99.90;;;12.63;100.00;97870.03;5007905;28;20124;-70
2023/06/01 00:39:53;;;;;;;4.75;1.70;;;13.90;99.90;;;12.56;100.00;97866.84;4994529;28;20508;-71
2023/06/01 00:42:20;;;;;;;6.18;1.60;;;13.90;99.90;;;12.48;100.00;97869.81;5007051;28;20060;-71
2023/06/01 00:44:47;;;;;;;5.10;1.83;;;13.80;99.90;;;12.50;100.00;97860.19;5007034;28;20073;-71
2023/06/01 00:47:14;;;;;;;4.88;1.92;;;13.70;99.90;;;12.41;100.00;97857.16;5006878;28;20108;-70
2023/06/01 00:49:42;;;;;;;5.45;1.73;;;13.60;99.90;;;12.40;100.00;97858.91;5002381;28;20046;-71
2023/06/01 00:52:10;;;;;;;4.97;1.75;;;13.60;99.90;;;12.35;100.00;97853.91;5011869;28;20112;-71
2023/06/01 00:54:37;;;;;;;5.70;1.80;;;13.60;99.90;;;12.34;100.00;97864.41;4992740;28;20049;-70
2023/06/01 00:57:05;;;;;;;4.82;1.98;;;13.50;99.90;;;12.20;100.00;97858.94;4988348;28;20078;-71
2023/06/01 00:59:34;;;;;;;6.40;2.00;;;13.50;99.90;;;12.26;100.00;97858.69;4990682;28;20463;-71
2023/06/01 01:02:04;;;;;;;3.67;1.80;;;13.50;99.90;;;12.29;100.00;97859.41;5006858;28;20058;-71
2023/06/01 01:04:32;;;;;;;4.03;2.10;;;13.40;99.90;;;12.31;100.00;97854.94;5005462;28;20053;-71
2023/06/01 01:07:20;;;;;;;3.58;1.60;;;13.50;99.90;;;12.30;100.00;97853.28;5009297;28;20051;-71
2023/06/01 01:09:58;;;;;;;3.20;1.60;;;13.40;99.90;;;12.33;100.00;97857.50;5005074;28;20506;-71
2023/06/01 01:12:49;;;;;;;4.47;1.63;;;13.50;99.90;;;12.25;100.00;97854.41;4978384;28;20057;-71
2023/06/01 01:15:37;;;;;;;6.40;1.90;;;13.40;99.90;;;12.33;100.00;97854.88;4993217;28;20193;-71
2023/06/01 01:18:13;;;;;;;7.68;1.70;;;13.40;99.90;;;12.38;100.00;97858.13;5007062;28;20077;-71
2023/06/01 01:20:48;;;;;;;4.82;1.55;;;13.50;99.90;;;12.40;100.00;97866.72;4971083;28;20068;-71
2023/06/01 01:23:49;;;;;;;5.20;1.92;;;13.50;99.90;;;12.39;100.00;97865.03;4989783;28;20125;-71
2023/06/01 01:26:55;;;;;;;5.10;1.73;;;13.60;99.90;;;12.31;100.00;97870.56;4990025;28;20105;-71
2023/06/01 01:29:26;;;;;;;4.57;1.70;;;13.50;99.90;;;12.27;100.00;97875.97;4959875;28;20054;-71
2023/06/01 01:31:55;;;;;;;4.47;1.88;;;13.50;99.90;;;12.09;100.00;97875.06;5008837;28;20116;-71
2023/06/01 01:34:26;;;;;;;4.28;2.08;;;13.40;99.90;;;11.92;100.00;97883.59;4985839;28;20164;-71
2023/06/01 01:36:55;;;;;;;4.68;1.90;;;13.30;99.90;;;11.82;100.00;97875.31;5004145;28;20101;-71
2023/06/01 01:39:22;;;;;;;4.55;1.80;;;13.10;99.90;;;11.70;100.00;97875.84;5007164;28;20065;-71
2023/06/01 01:41:49;;;;;;;6.53;2.10;;;13.00;99.90;;;11.67;100.00;97883.75;5006137;28;20573;-71
2023/06/01 01:44:17;;;;;;;7.30;1.85;;;12.90;99.90;;;11.69;100.00;97887.97;4994595;28;20415;-71
2023/06/01 01:47:15;;;;;;;5.30;2.30;;;12.80;99.90;;;11.62;100.00;97881.34;4993940;28;20140;-71
2023/06/01 01:49:46;;;;;;;5.65;2.00;;;12.80;99.90;;;11.57;100.00;97882.47;4985579;28;20430;-71
2023/06/01 01:52:26;;;;;;;5.75;2.28;;;12.80;99.90;;;11.51;100.00;97880.94;4991825;28;20058;-71
2023/06/01 01:54:55;;;;;;;4.40;1.85;;;12.70;99.90;;;11.43;100.00;97878.66;4987465;28;20085;-71
2023/06/01 01:57:24;;;;;;;8.20;1.98;;;12.70;99.90;;;11.51;100.00;97884.38;5005230;28;20054;-71
2023/06/01 01:59:56;;;;;;;3.88;2.00;;;12.70;99.90;;;11.55;100.00;97879.91;5000444;28;20108;-71
2023/06/01 02:02:23;;;;;;;4.80;1.80;;;12.70;99.90;;;11.55;100.00;97873.88;4991476;28;20094;-71
2023/06/01 02:04:50;;;;;;;6.00;2.20;;;12.70;99.90;;;11.46;100.00;97881.13;4984541;28;20077;-70
2023/06/01 02:07:17;;;;;;;6.80;2.05;;;12.70;99.90;;;11.43;100.00;97880.44;5005121;28;20150;-71
2023/06/01 02:09:45;;;;;;;6.40;2.60;;;12.70;99.90;;;11.46;100.00;97878.53;5011376;28;20111;-71
2023/06/01 02:12:12;;;;;;;6.30;1.92;;;12.70;99.90;;;11.54;100.00;97882.56;4990166;28;20133;-71
2023/06/01 02:14:39;;;;;;;3.47;1.80;;;12.70;99.90;;;11.47;100.00;97876.78;5001079;28;20053;-71
2023/06/01 02:17:07;;;;;;;5.00;2.00;;;12.70;99.90;;;11.38;100.00;97878.03;4993160;28;20125;-71
2023/06/01 02:19:34;;;;;;;5.47;1.98;;;12.70;99.90;;;11.34;100.00;97875.63;5008794;28;20139;-71
2023/06/01 02:22:01;;;;;;;5.45;2.28;;;12.70;99.90;;;11.30;100.00;97873.13;5006172;28;20064;-71
2023/06/01 02:24:30;;;;;;;5.75;1.88;;;12.60;99.90;;;11.26;100.00;97875.91;4989296;28;20402;-71
2023/06/01 02:26:57;;;;;;;4.82;2.03;;;12.50;99.90;;;11.18;100.00;97876.22;4988140;28;20140;-71
2023/06/01 02:29:24;;;;;;;4.38;2.00;;;12.50;99.90;;;11.21;100.00;97872.66;5007806;28;20133;-71
2023/06/01 02:31:53;;;;;;;6.85;1.90;;;12.40;99.90;;;11.16;100.00;97878.03;5008735;28;20096;-71
2023/06/01 02:34:20;;;;;;;6.85;1.92;;;12.40;99.90;;;11.19;100.00;97874.47;5008019;28;20082;-71
2023/06/01 02:36:48;;;;;;;5.60;1.90;;;12.40;99.90;;;11.18;100.00;97871.03;5007390;28;20100;-71
2023/06/01 02:39:16;;;;;;;12.07;2.08;;;12.50;99.90;;;11.22;100.00;97869.13;5011781;28;20175;-71
2023/06/01 02:41:44;;;;;;;5.50;1.98;;;12.40;99.90;;;11.14;100.00;97868.63;4993467;28;20054;-71
2023/06/01 02:44:11;;;;;;;5.88;2.28;;;12.40;99.90;;;11.03;100.00;97869.88;4998691;28;20525;-71
2023/06/01 02:46:39;;;;;;;7.38;2.00;;;12.40;99.90;;;10.99;100.00;97875.25;4988642;28;20101;-71
2023/06/01 02:49:06;;;;;;;6.63;2.13;;;12.30;99.90;;;11.01;100.00;97874.28;5005988;28;20060;-71
2023/06/01 02:51:33;;;;;;;5.00;2.00;;;12.30;99.90;;;11.07;100.00;97871.44;4998059;28;20045;-71
2023/06/01 02:54:00;;;;;;;6.57;1.95;;;12.30;99.90;;;11.14;100.00;97879.00;5009371;28;20050;-70
2023/06/01 02:56:27;;;;;;;5.65;2.10;;;12.30;99.90;;;11.08;100.00;97877.47;5011499;28;20065;-71
2023/06/01 02:58:55;;;;;;;7.40;2.00;;;12.40;99.90;;;10.98;100.00;97878.78;5012253;28;20057;-71
2023/06/01 03:01:23;;;;;;;5.43;1.98;;;12.30;99.90;;;10.94;100.00;97878.03;4990961;28;20169;-71
2023/06/01 03:03:52;;;;;;;4.65;1.75;;;12.30;99.90;;;11.00;100.00;97883.00;5010057;28;20053;-71
2023/06/01 03:06:23;;;;;;;4.65;2.08;;;12.20;99.90;;;10.88;100.00;97881.72;5015023;28;20724;-71
2023/06/01 03:08:50;;;;;;;4.35;1.95;;;12.20;99.90;;;10.81;100.00;97877.69;5010160;28;20073;-71
2023/06/01 03:11:18;;;;;;;4.72;2.33;;;12.10;99.90;;;10.76;100.00;97870.97;5007429;28;20153;-71
2023/06/01 03:13:45;;;;;;;5.88;2.13;;;12.00;99.90;;;10.78;100.00;97875.19;5008131;28;20156;-71
2023/06/01 03:16:12;;;;;;;4.93;1.73;;;12.00;99.90;;;10.71;100.00;97873.72;5008522;28;20137;-71
2023/06/01 03:18:39;;;;;;;7.38;2.17;;;12.00;99.90;;;10.83;100.00;97882.78;4994235;28;20056;-71
2023/06/01 03:21:06;;;;;;;7.38;2.20;;;12.00;99.90;;;10.79;100.00;97876.91;5003645;28;20061;-71
2023/06/01 03:23:33;;;;;;;4.07;1.95;;;12.00;99.90;;;10.82;100.00;97884.56;4989186;28;20164;-71
2023/06/01 03:26:03;;;;;;;6.63;2.13;;;12.00;99.90;;;10.76;100.00;97889.13;5005047;28;20129;-71
2023/06/01 03:28:31;;;;;;;9.57;2.35;;;12.00;99.90;;;10.74;100.00;97890.94;5005328;28;20473;-70
2023/06/01 03:30:58;;;;;;;6.55;2.22;;;12.00;99.90;;;10.73;100.00;97894.47;5002896;28;20092;-71
2023/06/01 03:33:26;;;;;;;5.72;2.10;;;12.00;99.90;;;10.70;100.00;97895.41;5007230;28;20053;-71
2023/06/01 03:35:53;;;;;;;3.65;2.05;;;12.00;99.90;;;10.73;100.00;97891.84;5009872;28;20057;-71
2023/06/01 03:38:20;;;;;;;6.35;2.35;;;12.00;99.90;;;10.73;100.00;97899.66;5008070;28;20689;-71
2023/06/01 03:40:47;;;;;;;5.00;2.42;;;12.00;99.90;;;10.71;100.00;97899.69;4991694;28;20140;-71
2023/06/01 03:43:14;;;;;;;4.85;1.95;;;12.00;99.90;;;10.72;100.00;97892.75;5005483;28;20080;-71
2023/06/01 03:45:41;;;;;;;5.10;1.95;;;12.00;99.90;;;10.62;100.00;97900.03;5003333;28;20105;-71
2023/06/01 03:48:08;;;;;;;4.72;2.10;;;11.90;99.90;;;10.52;100.00;97902.16;4993199;28;20054;-71
2023/06/01 03:50:35;;;;;;;5.57;2.22;;;11.90;99.90;;;10.64;100.00;97901.69;4991843;28;20502;-71
2023/06/01 03:53:02;;;;;;;4.22;2.00;;;11.90;99.90;;;10.61;100.00;97906.16;5002920;28;20420;-71
2023/06/01 03:55:30;;;;;;;6.13;2.30;;;11.90;99.90;;;10.64;100.00;97908.63;5007200;28;20042;-71
2023/06/01 03:57:57;;;;;;;9.38;2.15;;;11.90;99.90;;;10.58;100.00;97911.44;5009033;28;20542;-71
2023/06/01 04:00:24;;;;;;;4.57;2.08;;;11.90;99.90;;;10.59;100.00;97914.00;4994539;28;20054;-71
2023/06/01 04:02:56;;;;;;;3.40;1.88;;;11.90;99.90;;;10.62;100.00;97918.22;5007954;28;20053;-71
2023/06/01 04:05:26;;;;;;;5.07;2.00;;;11.90;99.90;;;10.68;100.00;97918.84;5005933;28;20058;-71
2023/06/01 04:07:55;;;;;;;6.10;1.90;;;11.80;99.90;;;10.73;100.00;97912.63;5008813;28;20054;-71
2023/06/01 04:10:22;;;;;;;4.47;1.83;;;11.90;99.90;;;10.77;100.00;97914.22;4992065;28;20898;-71
2023/06/01 04:12:50;;;;;;;5.40;1.90;;;11.90;99.90;;;10.82;100.00;97915.72;5006722;28;20053;-71
2023/06/01 04:15:20;;;;;;;5.40;2.25;;;12.00;99.90;;;10.92;100.00;97921.41;4982885;28;20169;-71
2023/06/01 04:17:47;;;;;;;3.42;1.90;;;12.00;99.90;;;11.05;100.00;97912.22;4991649;28;20050;-71
2023/06/01 04:20:17;;;;;;;5.82;2.22;;;12.00;99.90;;;11.05;100.00;97914.81;5004066;28;20061;-71
2023/06/01 04:22:45;;;;;;;4.13;1.58;;;12.10;99.90;;;11.06;100.00;97913.06;4990880;28;20060;-71
2023/06/01 04:25:18;;;;;;;4.82;1.70;;;12.20;99.90;;;11.14;100.00;97916.22;5002184;28;20514;-71
2023/06/01 04:27:48;;;;;;;6.03;2.20;;;12.20;99.90;;;11.20;100.00;97916.00;5008407;28;20575;-71
2023/06/01 04:30:16;;;;;;;4.10;1.83;;;12.20;99.90;;;11.43;100.00;97915.06;4990281;28;20517;-71
2023/06/01 04:32:45;;;;;;;7.47;2.00;;;12.30;99.90;;;11.44;100.00;97908.94;5005887;28;20158;-71
2023/06/01 04:35:14;;;;;;;6.10;1.92;;;12.40;99.90;;;11.51;100.00;97917.34;5002214;28;20144;-71
2023/06/01 04:37:42;;;;;;;6.55;2.10;;;12.50;99.90;;;11.65;100.00;97912.41;4987918;28;20048;-71
2023/06/01 04:40:10;;;;;;;5.72;2.15;;;12.60;99.90;;;11.71;100.00;97908.72;5005803;28;20050;-71
2023/06/01 04:42:45;;;;;;;4.60;1.85;;;12.70;99.90;;;11.77;100.00;97913.66;4990470;28;20066;-71
2023/06/01 04:45:13;;;;;;;4.78;2.08;;;12.80;99.90;;;11.89;100.00;97907.13;5009865;28;20049;-71
2023/06/01 04:47:41;;;;;;;7.07;1.77;;;12.80;99.90;;;11.99;100.00;97908.41;4991663;28;20516;-71
2023/06/01 04:50:10;;;;;;;3.88;2.03;;;12.80;99.90;;;11.96;100.00;97905.97;5007724;28;20053;-71
2023/06/01 04:52:39;;;;;;;4.50;1.95;;;13.00;99.90;;;12.05;100.00;97908.16;5006099;28;20069;-71
2023/06/01 04:55:08;;;;;;;3.58;1.83;;;13.00;99.90;;;12.13;100.00;97911.28;4987072;28;20522;-71
2023/06/01 04:57:38;;;;;;;4.18;2.00;;;13.00;99.90;;;12.23;100.00;97911.72;4977686;28;20104;-71
2023/06/01 05:00:12;;;;;;;6.30;2.28;;;13.10;99.90;;;12.35;100.00;97908.56;5005889;28;20100;-71
2023/06/01 05:02:40;;;;;;;7.15;2.15;;;13.10;99.90;;;12.39;100.00;97911.06;4992366;28;20134;-71
2023/06/01 05:05:08;;;;;;;4.75;1.90;;;13.20;99.90;;;12.50;100.00;97912.25;5011740;28;20118;-71
2023/06/01 05:07:41;;;;;;;4.60;1.90;;;13.30;99.90;;;12.66;100.00;97908.97;4997154;28;20679;-71
2023/06/01 05:10:11;;;;;;;4.13;1.98;;;13.40;99.90;;;12.82;100.00;97911.69;4988542;28;20057;-71
2023/06/01 05:12:38;;;;;;;6.80;2.05;;;13.50;99.90;;;12.98;100.00;97910.91;4993996;28;20557;-71
2023/06/01 05:15:08;;;;;;;5.07;1.55;;;13.60;99.90;;;13.14;100.00;97904.97;4981006;28;20050;-71
2023/06/01 05:17:35;;;;;;;3.53;1.73;;;13.80;99.90;;;13.43;100.00;97900.97;4996327;28;20080;-71
2023/06/01 05:20:03;;;;;;;5.60;1.88;;;14.00;99.90;;;13.75;100.00;97898.53;4994073;28;20430;-71
2023/06/01 05:22:30;;;;;;;6.20;1.70;;;14.20;99.90;;;14.06;100.00;97887.38;5006518;28;20446;-71
2023/06/01 05:24:57;;;;;;;4.53;1.63;;;14.40;99.90;;;14.24;100.00;97882.97;4985458;28;20116;-71
2023/06/01 05:27:24;;;;;;;13.90;1.70;;;14.60;99.90;;;14.57;100.00;97877.78;5003817;28;20490;-71
2023/06/01 05:29:51;;;;;;;6.00;1.80;;;14.90;99.90;;;14.73;100.00;97874.31;4985954;28;20049;-71
2023/06/01 05:32:18;;;;;;;4.95;1.80;;;15.10;99.90;;;14.93;100.00;97873.22;5006963;28;20045;-72
2023/06/01 05:34:46;;;;;;;3.50;1.55;;;15.30;99.90;;;15.08;100.00;97861.09;5003894;28;20046;-71
2023/06/01 05:37:13;;;;;;;5.10;1.42;;;15.50;99.90;;;15.30;100.00;97864.13;5006765;28;20107;-71
2023/06/01 05:39:40;;;;;;;5.70;1.98;;;15.70;99.90;;;15.40;100.00;97854.84;5009507;28;20498;-72
2023/06/01 05:42:08;;;;;;;6.32;1.60;;;15.80;99.90;;;15.59;100.00;97851.16;5006867;28;20057;-71
2023/06/01 05:44:35;;;;;;;5.13;1.58;;;16.00;99.90;;;15.78;100.00;97853.56;4988219;28;20096;-72
2023/06/01 05:47:05;;;;;;;5.57;1.90;;;16.20;99.90;;;15.94;100.00;97851.69;4987373;28;20504;-72
2023/06/01 05:49:35;;;;;;;4.82;1.58;;;16.40;99.90;;;16.09;100.00;97850.78;4984058;28;20061;-72
2023/06/01 05:52:04;;;;;;;5.90;1.80;;;16.60;99.90;;;16.14;100.00;97852.28;4987573;28;20062;-71
2023/06/01 05:54:31;;;;;;;5.53;1.50;;;16.60;99.90;;;16.07;100.00;97847.41;5007234;28;20077;-72
2023/06/01 05:56:58;;;;;;;5.28;1.88;;;16.80;99.90;;;16.26;100.00;97847.16;4996706;28;20127;-72
2023/06/01 05:59:25;;;;;;;6.22;1.50;;;16.80;99.90;;;16.37;100.00;97848.25;5004144;28;20096;-72
2023/06/01 06:01:53;;;;;;;6.43;1.90;;;16.90;99.90;;;16.44;100.00;97844.31;5003249;28;20098;-71
2023/06/01 06:04:23;;;;;;;5.35;1.60;;;17.00;99.90;;;16.55;100.00;97841.03;4982602;28;20050;-72
2023/06/01 06:06:53;;;;;;;6.88;1.70;;;17.10;99.90;;;16.66;100.00;97843.84;5001975;28;20585;-72
2023/06/01 06:09:20;;;;;;;8.88;1.80;;;17.20;99.90;;;16.79;100.00;97839.53;5006485;28;20105;-72
2023/06/01 06:11:47;;;;;;;6.10;1.65;;;17.30;99.90;;;16.77;100.00;97840.53;5010888;28;20053;-72
2023/06/01 06:14:14;;;;;;;4.57;1.90;;;17.40;99.90;;;16.66;100.00;97843.84;4987960;28;20073;-72
2023/06/01 06:16:42;;;;;;;7.10;2.10;;;17.40;99.90;;;16.74;100.00;97846.81;5006027;28;20077;-72
2023/06/01 06:19:09;;;;;;;7.95;1.83;;;17.40;99.90;;;17.02;100.00;97848.53;4975998;28;20435;-72
2023/06/01 06:21:37;;;;;;;5.47;1.77;;;17.60;99.90;;;17.17;100.00;97844.06;5012074;28;20052;-72
2023/06/01 06:24:05;;;;;;;8.55;1.73;;;17.70;99.90;;;17.30;100.00;97844.97;5008982;28;20423;-72
2023/06/01 06:26:32;;;;;;;3.55;1.63;;;17.80;99.90;;;17.19;100.00;97841.34;4989844;28;20077;-72
2023/06/01 06:28:59;;;;;;;3.92;1.35;;;17.80;99.90;;;17.22;100.00;97838.53;5008746;28;20159;-72
2023/06/01 06:31:26;;;;;;;6.85;1.58;;;17.80;99.90;;;17.34;100.00;97841.19;4991401;28;20153;-72
2023/06/01 06:33:53;;;;;;;7.47;1.35;;;17.90;99.90;;;17.24;100.00;97842.75;5013260;28;20065;-72
2023/06/01 06:36:20;;;;;;;4.70;1.67;;;18.00;99.90;;;17.46;100.00;97842.16;5012434;28;20046;-72
2023/06/01 06:38:47;;;;;;;6.38;1.48;;;18.00;99.90;;;17.51;100.00;97841.84;4993588;28;20042;-71
2023/06/01 06:41:15;;;;;;;6.75;1.90;;;18.10;99.90;;;17.65;100.00;97831.28;4995208;28;20112;-72
2023/06/01 06:43:42;;;;;;;6.00;1.80;;;18.20;99.90;;;17.86;100.00;97829.03;5007363;28;20479;-72
2023/06/01 06:46:09;;;;;;;3.35;1.48;;;18.30;99.90;;;18.16;100.00;97835.75;5014020;28;20050;-71
2023/06/01 06:48:36;;;;;;;8.82;1.75;;;18.50;99.90;;;18.06;100.00;97840.78;4998662;28;20046;-72
2023/06/01 06:51:04;;;;;;;9.90;1.70;;;18.60;99.90;;;18.00;100.00;97832.50;5013063;28;20053;-72
2023/06/01 06:53:33;;;;;;;6.03;1.73;;;18.70;99.90;;;18.40;100.00;97835.81;5011197;28;20050;-72
2023/06/01 06:56:00;;;;;;;5.78;1.98;;;18.90;99.90;;;18.30;100.00;97830.34;5015713;28;20113;-72
2023/06/01 06:58:27;;;;;;;5.82;1.98;;;18.90;99.90;;;18.35;100.00;97822.16;5012634;28;20104;-72
2023/06/01 07:00:54;;;;;;;6.47;1.88;;;19.00;99.90;;;18.53;100.00;97834.00;5011867;28;20065;-72
2023/06/01 07:03:21;;;;;;;5.30;1.77;;;19.10;99.90;;;18.59;100.00;97833.56;5016103;28;20057;-72
2023/06/01 07:05:49;;;;;;;9.02;1.95;;;19.30;99.90;;;18.75;100.00;97835.94;5009901;28;20054;-72
2023/06/01 07:08:16;;;;;;;3.85;1.60;;;19.40;99.90;;;18.71;100.00;97833.63;5011901;28;20092;-72
2023/06/01 07:10:43;;;;;;;9.52;1.50;;;19.40;99.90;;;18.69;100.00;97835.53;5019331;28;20057;-72
2023/06/01 07:13:10;;;;;;;5.93;1.40;;;19.40;99.90;;;18.74;100.00;97839.50;5007884;28;20104;-72
2023/06/01 07:15:37;;;;;;;4.35;1.60;;;19.50;99.90;;;18.86;100.00;97834.34;5007484;28;20155;-72
2023/06/01 07:18:04;;;;;;;3.50;1.48;;;19.60;99.90;;;18.97;100.00;97826.53;5008570;28;20113;-72
2023/06/01 07:20:31;;;;;;;4.28;1.40;;;19.60;99.90;;;18.88;100.00;97822.75;5006418;28;20551;-72
2023/06/01 07:22:59;;;;;;;3.58;1.35;;;19.60;99.90;;;19.16;100.00;97832.13;5008957;28;20059;-72
2023/06/01 07:25:26;;;;;;;5.05;1.52;;;19.70;99.90;;;19.12;100.00;97835.94;4991304;28;20080;-72
2023/06/01 07:27:56;;;;;;;4.65;1.30;;;19.90;99.90;;;19.15;100.00;97834.88;4998091;28;20068;-72
2023/06/01 07:30:23;;;;;;;4.30;1.38;;;20.00;99.90;;;19.33;100.00;97832.66;4991972;28;20038;-72
2023/06/01 07:32:50;;;;;;;3.42;1.50;;;20.00;99.90;;;19.27;100.00;97835.75;4991885;28;20174;-72
2023/06/01 07:35:18;;;;;;;3.97;1.48;;;20.00;99.90;;;19.68;100.00;97831.81;5013754;28;20129;-72
2023/06/01 07:37:45;;;;;;;5.05;1.50;;;20.10;99.90;;;19.69;100.00;97837.00;5013041;28;20051;-72
2023/06/01 07:40:13;;;;;;;7.70;1.58;;;20.20;99.90;;;20.01;100.00;97839.81;5017023;28;20045;-72
2023/06/01 07:42:40;;;;;;;4.18;1.58;;;20.30;99.90;;;19.89;100.00;97838.13;5010803;28;20065;-72
2023/06/01 07:45:09;;;;;;;6.03;1.65;;;20.60;99.90;;;19.52;100.00;97837.38;4995381;28;20152;-72
2023/06/01 07:47:36;;;;;;;4.18;1.63;;;20.50;99.90;;;19.90;100.00;97833.69;5005283;28;20045;-72
2023/06/01 07:50:04;;;;;;;6.90;1.60;;;20.50;99.90;;;20.17;100.00;97838.63;5007710;28;20145;-72
2023/06/01 07:52:32;;;;;;;3.50;1.60;;;20.50;99.90;;;20.00;100.00;97840.78;4989533;28;20121;-72
2023/06/01 07:54:59;;;;;;;6.95;1.80;;;20.70;99.90;;;19.79;100.00;97840.59;5005089;28;20150;-72
2023/06/01 07:57:26;;;;;;;5.88;1.80;;;20.70;99.90;;;20.03;100.00;97844.97;5006243;28;20096;-72
2023/06/01 07:59:54;;;;;;;5.07;1.75;;;20.70;99.90;;;20.07;100.00;97838.53;5005990;28;20093;-72
2023/06/01 08:02:21;;;;;;;9.27;2.13;;;20.80;99.90;;;20.21;100.00;97838.28;5008494;28;20050;-73
2023/06/01 08:04:48;;;;;;;5.70;1.35;;;20.80;99.90;;;20.38;100.00;97839.59;4992636;28;20077;-72
2023/06/01 08:07:16;;;;;;;5.22;1.80;;;20.90;99.90;;;20.50;100.00;97829.03;5006668;28;20062;-72
2023/06/01 08:09:43;;;;;;;7.75;1.90;;;21.10;99.90;;;20.60;100.00;97830.03;5009172;28;20053;-72
2023/06/01 08:12:11;;;;;;;4.90;1.65;;;21.30;99.90;;;20.58;100.00;97821.41;4992938;28;20050;-72
2023/06/01 08:14:39;;;;;;;5.90;1.50;;;21.30;99.90;;;20.94;100.00;97825.53;4990125;28;20050;-72
2023/06/01 08:17:07;;;;;;;8.52;1.67;;;21.40;99.90;;;21.19;100.00;97818.22;5005612;28;20897;-72
2023/06/01 08:19:35;;;;;;;7.70;1.55;;;21.70;99.90;;;21.26;100.00;97809.69;5012455;28;20041;-72
2023/06/01 08:22:06;;;;;;;5.85;1.58;;;21.80;99.90;;;21.39;100.00;97814.78;4989894;28;20576;-72
2023/06/01 08:24:35;;;;;;;4.88;1.27;;;21.90;99.90;;;21.80;100.00;97814.94;4990982;28;21011;-72
2023/06/01 08:27:16;;;;;;;4.15;1.27;;;22.10;99.90;;;22.14;100.00;97819.00;5002328;28;20420;-72
2023/06/01 08:29:47;;;;;;;7.18;1.30;;;22.30;99.90;;;22.08;100.00;97811.63;4997498;28;20073;-72
2023/06/01 08:32:15;;;;;;;5.60;1.73;;;22.60;99.90;;;22.60;100.00;97808.91;4982910;28;20165;-72
2023/06/01 08:34:45;;;;;;;8.00;1.73;;;22.80;99.90;;;22.42;100.00;97811.41;4998969;28;20051;-72
2023/06/01 08:37:13;;;;;;;7.60;1.73;;;22.70;99.30;;;23.34;100.00;97808.50;4994271;28;20076;-72
2023/06/01 08:39:41;;;;;;;7.68;1.75;;;22.80;99.40;;;22.91;100.00;97806.22;5003057;28;20125;-72
2023/06/01 08:42:53;;;;;;;3.47;1.30;;;23.00;98.90;;;23.54;100.00;97800.53;4985303;28;20113;-72
2023/06/01 08:45:20;;;;;;;8.88;1.38;;;23.10;98.60;;;24.21;100.00;97801.34;4975559;28;20129;-72
2023/06/01 08:47:52;;;;;;;4.00;1.40;;;23.40;98.80;;;24.58;100.00;97797.84;4987743;28;20530;-72
2023/06/01 08:50:21;;;;;;;4.32;1.13;;;24.00;98.50;;;24.58;100.00;97797.84;5014400;28;20054;-72
2023/06/01 08:52:54;;;;;;;7.22;1.55;;;24.40;96.80;;;24.18;100.00;97799.00;4989372;28;20046;-72
2023/06/01 08:55:21;;;;;;;4.30;1.30;;;24.60;95.70;;;24.78;100.00;97791.44;5006463;28;20124;-73
2023/06/01 08:57:49;;;;;;;4.30;1.30;;;25.00;95.60;;;24.85;100.00;97789.03;4989033;28;20066;-74
2023/06/01 09:00:18;;;;;;;4.88;1.20;;;25.20;93.70;;;25.28;100.00;97790.13;5004930;28;20072;-72
2023/06/01 09:02:49;;;;;;;5.30;1.30;;;25.80;93.10;;;25.86;100.00;97796.69;4995364;28;20045;-72
2023/06/01 09:05:17;;;;;;;6.70;1.08;;;26.30;92.60;;;25.77;100.00;97787.00;5001933;28;20136;-72
2023/06/01 09:07:44;;;;;;;9.00;1.52;;;26.70;92.10;;;24.98;98.18;97797.47;5013500;28;20042;-73
2023/06/01 09:10:11;;;;;;;4.32;1.15;;;27.10;90.00;;;25.19;94.90;97791.88;4995517;28;20064;-72
2023/06/01 09:12:51;;;;;;;3.92;1.10;;;27.10;86.80;;;25.38;93.43;97784.72;5012139;28;20502;-72
2023/06/01 09:15:19;;;;;;;7.03;1.20;;;27.10;85.40;;;25.40;91.32;97790.72;5008769;28;20050;-73
2023/06/01 09:17:52;;;;;;;3.33;1.20;;;27.20;83.70;;;26.61;89.79;97778.31;5006283;28;20509;-72
2023/06/01 09:20:28;;;;;;;3.97;0.88;;;27.70;84.50;;;26.70;89.58;97780.00;5008194;28;20101;-72
2023/06/01 09:22:55;;;;;;;4.57;1.02;;;28.10;83.10;;;26.46;88.12;97778.09;4993602;28;20085;-73
2023/06/01 09:25:31;;;;;;;5.13;1.10;;;28.50;82.30;;;26.29;88.07;97779.00;4983829;28;20052;-72
2023/06/01 09:28:02;;;;;;;5.10;1.30;;;28.60;81.30;;;26.60;85.18;97775.84;4981974;28;20647;-73
2023/06/01 09:30:44;;;;;;;3.97;1.42;;;28.30;79.90;;;26.41;84.38;97774.22;4989952;28;20517;-72
2023/06/01 09:33:18;;;;;;;3.08;0.80;;;28.60;78.90;;;26.55;83.58;97775.47;4976195;28;20073;-73
2023/06/01 09:35:48;;;;;;;7.75;1.30;;;28.70;78.60;;;26.43;84.49;97769.59;5000479;28;20114;-72
2023/06/01 09:38:24;;;;;;;4.07;1.05;;;28.40;78.20;;;26.72;83.66;97768.38;5007278;28;20135;-73
2023/06/01 09:41:04;;;;;;;4.80;1.23;;;28.60;77.80;;;26.40;81.14;97762.75;4988225;28;20052;-73
2023/06/01 09:43:37;;;;;;;3.78;1.10;;;28.40;75.70;;;26.55;81.87;97767.50;5001168;28;20169;-78
2023/06/01 09:46:13;;;;;;;6.55;1.15;;;28.60;76.60;;;26.02;82.69;97764.09;5004448;28;20078;-76
2023/06/01 09:48:43;;;;;;;3.90;1.13;;;28.10;76.50;;;26.38;84.75;97767.41;4987766;28;20088;-78
2023/06/01 09:51:28;;;;;;;3.17;1.30;;;28.50;77.40;;;26.57;83.60;97758.38;5003961;28;20077;-77
2023/06/01 09:53:57;;;;;;;4.18;1.20;;;28.80;76.30;;;26.80;84.19;97769.25;4988664;28;20054;-76
2023/06/01 09:56:25;;;;;;;5.90;1.33;;;28.70;77.40;;;27.47;81.08;97757.66;4981216;28;20401;-75
2023/06/01 09:58:59;;;;;;;4.00;1.30;;;29.00;76.30;;;27.68;80.87;97762.47;4989427;28;20486;-78
2023/06/01 10:01:31;;;;;;;7.13;1.25;;;29.10;76.60;;;28.33;81.22;97761.47;4978295;28;20081;-79
2023/06/01 10:04:00;;;;;;;4.55;1.23;;;29.10;76.80;;;27.89;79.77;97752.09;5006825;28;20861;-78
2023/06/01 10:06:31;;;;;;;2.95;1.20;;;29.50;75.70;;;28.21;79.39;97749.50;5002924;28;20042;-78
2023/06/01 10:09:00;;;;;;;6.22;1.10;;;29.50;75.80;;;27.70;79.10;97755.13;4990991;28;20045;-78
2023/06/01 10:11:28;;;;;;;6.20;1.20;;;29.40;76.30;;;28.14;79.47;97746.69;4996921;28;20057;-79
2023/06/01 10:13:57;;;;;;;8.93;1.50;;;29.40;75.90;;;27.52;81.82;97742.81;5008800;28;20057;-77
2023/06/01 10:16:24;;;;;;;7.63;1.40;;;29.40;75.60;;;29.42;81.56;97751.63;4978797;28;20054;-78
2023/06/01 10:18:52;;;;;;;3.33;0.90;;;29.30;77.90;;;28.18;77.65;97744.53;5000661;28;20057;-78
2023/06/01 10:21:20;;;;;;;5.05;1.40;;;29.20;74.70;;;28.45;77.43;97744.06;4995349;28;20444;-78